Chignik Lake, Alaska
Current Conditions -  °F | °C
As of 3:16 AM on Thursday 29 Jan 2015 (Local Time) from PAJC Reporting Station
Overcast Overcast  
Wind Chill: 27°   Ceiling: 2400
Heat Index: 34°   Visibility: 10mi
Dew Point: 27°   Wind: 8mph
Humidity: 75%   Direction: 240°WSW
Pressure: 29.93"   Gusts: NA
Location:  56.26°N, 158.77°W
Report Text: PAJC 291216Z AUTO 24007KT 10SM FEW017 OVC024 01/M03 A2993 RMK AO1
Loading
Personal Weather Stations






























Interactive Weather Map New forecast layout! Learn more

10-Day Weather Forecast

Advertisements
Track Severe Weather on mobile